Time;durP1;ratioP1;P1;durP2;ratioP2;P2;SDS_P1;SDS_P2;PMS_P1;PMS_P2;Temp;Humidity;BMP_temperature;BMP_pressure;BME280_temperature;BME280_humidity;BME280_pressure;Samples;Min_cycle;Max_cycle;Signal;HPM_P1;HPM_P2
2021/12/21 00:01:21;;;;;;;6.90;5.50;;;2.50;91.50;;;;;;5117987;28;20478;-64
2021/12/21 00:03:49;;;;;;;8.47;5.63;;;2.50;91.50;;;;;;5117875;28;20466;-64
2021/12/21 00:06:16;;;;;;;8.40;5.87;;;2.40;91.40;;;;;;5117957;28;20787;-64
2021/12/21 00:08:43;;;;;;;9.70;5.57;;;2.40;91.50;;;;;;5117867;27;20449;-64
2021/12/21 00:11:09;;;;;;;11.07;5.73;;;2.50;91.70;;;;;;5117865;28;20451;-64
2021/12/21 00:13:46;;;;;;;9.97;6.40;;;2.50;91.70;;;;;;5117440;28;20459;-64
2021/12/21 00:16:26;;;;;;;7.60;4.90;;;2.40;91.60;;;;;;5117780;28;20434;-64
2021/12/21 00:19:08;;;;;;;11.20;6.60;;;2.40;91.50;;;;;;5117783;28;20473;-64
2021/12/21 00:21:38;;;;;;;7.77;5.33;;;2.40;91.50;;;;;;5117633;28;20826;-64
2021/12/21 00:24:12;;;;;;;7.67;5.40;;;2.30;91.40;;;;;;5118349;28;20519;-64
2021/12/21 00:26:39;;;;;;;9.37;6.83;;;2.30;91.30;;;;;;5117589;28;20441;-64
2021/12/21 00:29:06;;;;;;;12.10;6.43;;;2.30;91.20;;;;;;5117315;28;20454;-64
2021/12/21 00:31:36;;;;;;;8.90;5.13;;;2.30;91.40;;;;;;5117540;28;20480;-64
2021/12/21 00:34:07;;;;;;;9.50;5.57;;;2.30;91.50;;;;;;5117349;28;20477;-64
2021/12/21 00:36:35;;;;;;;10.17;5.60;;;2.30;91.50;;;;;;5117096;28;20934;-64
2021/12/21 00:39:06;;;;;;;10.37;5.87;;;2.30;91.40;;;;;;5117337;28;20442;-64
2021/12/21 00:41:34;;;;;;;9.60;5.50;;;2.30;91.40;;;;;;5117328;28;20478;-64
2021/12/21 00:44:01;;;;;;;12.37;6.20;;;2.30;91.40;;;;;;5117318;28;20462;-64
2021/12/21 00:46:27;;;;;;;11.53;6.30;;;2.30;91.50;;;;;;5117221;28;20446;-64
2021/12/21 00:49:00;;;;;;;11.47;6.80;;;2.30;91.60;;;;;;5117217;28;20789;-64
2021/12/21 00:51:29;;;;;;;8.83;5.67;;;2.30;91.60;;;;;;5117151;28;20430;-64
2021/12/21 00:53:55;;;;;;;9.23;5.13;;;2.30;91.70;;;;;;5116954;28;20827;-64
2021/12/21 00:56:22;;;;;;;9.50;5.60;;;2.30;91.70;;;;;;5117067;28;20435;-64
2021/12/21 00:58:49;;;;;;;9.90;5.70;;;2.30;91.60;;;;;;5116715;28;20476;-64
2021/12/21 01:01:16;;;;;;;9.67;5.37;;;2.30;91.40;;;;;;5116815;28;20478;-64
2021/12/21 01:03:48;;;;;;;11.40;6.33;;;2.20;91.20;;;;;;5116789;28;20470;-64
2021/12/21 01:06:22;;;;;;;11.23;5.83;;;2.20;91.50;;;;;;5117310;28;20453;-64
2021/12/21 01:09:06;;;;;;;8.10;6.10;;;2.10;91.50;;;;;;5116683;28;20423;-64
2021/12/21 01:11:37;;;;;;;9.50;5.83;;;2.10;91.40;;;;;;5116772;28;20799;-64
2021/12/21 01:14:20;;;;;;;7.80;5.40;;;2.10;91.50;;;;;;5116298;28;21050;-64
2021/12/21 01:16:59;;;;;;;10.70;6.00;;;2.10;91.50;;;;;;5117201;28;20431;-64
2021/12/21 01:19:33;;;;;;;8.53;5.77;;;2.10;91.40;;;;;;5116559;28;20432;-64
2021/12/21 01:22:07;;;;;;;10.33;6.57;;;2.00;91.30;;;;;;5116023;28;20998;-64
2021/12/21 01:24:51;;;;;;;7.33;5.40;;;2.00;91.30;;;;;;5116182;28;20928;-64
2021/12/21 01:27:28;;;;;;;10.27;6.10;;;2.00;91.40;;;;;;5116414;28;20521;-64
2021/12/21 01:30:05;;;;;;;9.50;5.50;;;2.00;91.50;;;;;;5116056;28;20434;-64
2021/12/21 01:32:49;;;;;;;12.67;6.10;;;2.00;91.40;;;;;;5116248;28;20462;-64
2021/12/21 01:35:23;;;;;;;9.83;6.30;;;1.90;91.40;;;;;;5116349;27;20434;-64
2021/12/21 01:37:57;;;;;;;7.73;5.27;;;1.90;91.40;;;;;;5116259;28;20432;-64
2021/12/21 01:40:42;;;;;;;10.53;6.30;;;1.90;91.40;;;;;;5116123;28;20434;-64
2021/12/21 01:43:17;;;;;;;9.67;5.87;;;1.90;91.30;;;;;;5115773;28;20469;-64
2021/12/21 01:51:16;;;;;;;11.53;5.87;;;1.90;91.50;;;;;;5116042;28;20399;-64
2021/12/21 01:53:43;;;;;;;9.00;5.90;;;1.90;91.50;;;;;;5115860;28;20463;-64
2021/12/21 01:56:12;;;;;;;9.27;5.93;;;1.90;91.50;;;;;;5115822;28;20450;-64
2021/12/21 01:58:40;;;;;;;6.93;5.60;;;1.90;91.50;;;;;;5115612;28;20492;-64
2021/12/21 02:01:08;;;;;;;7.60;5.50;;;1.90;91.60;;;;;;5115719;28;20502;-64
2021/12/21 02:03:35;;;;;;;9.63;6.20;;;1.90;91.60;;;;;;5115644;28;20461;-64
2021/12/21 02:06:02;;;;;;;13.07;6.20;;;1.80;91.60;;;;;;5115644;28;20814;-64
2021/12/21 02:08:28;;;;;;;9.63;5.40;;;1.80;91.70;;;;;;5115616;28;20440;-64
2021/12/21 02:10:59;;;;;;;9.03;5.63;;;1.80;91.70;;;;;;5115521;28;20457;-64
2021/12/21 02:13:32;;;;;;;6.63;5.43;;;1.90;91.70;;;;;;5115471;28;20888;-64
2021/12/21 02:15:58;;;;;;;9.10;5.53;;;1.80;91.70;;;;;;5116010;28;20442;-64
2021/12/21 02:18:34;;;;;;;7.50;5.20;;;1.80;91.60;;;;;;5115429;28;20447;-64
2021/12/21 02:21:16;;;;;;;7.33;5.77;;;1.80;91.70;;;;;;5114663;28;20479;-64
2021/12/21 02:23:43;;;;;;;8.63;5.07;;;1.90;91.70;;;;;;5115247;28;20577;-64
2021/12/21 02:26:22;;;;;;;7.33;5.57;;;1.80;91.60;;;;;;5115238;28;20499;-64
2021/12/21 02:29:11;;;;;;;8.47;5.23;;;1.80;91.60;;;;;;5115252;28;20426;-64
2021/12/21 02:31:40;;;;;;;11.37;5.40;;;1.80;91.60;;;;;;5114919;28;20923;-64
2021/12/21 02:34:08;;;;;;;8.13;5.70;;;1.80;91.60;;;;;;5115043;28;20475;-64
2021/12/21 02:36:37;;;;;;;7.97;5.17;;;1.80;91.50;;;;;;5115035;28;20485;-64
2021/12/21 02:39:05;;;;;;;9.13;5.73;;;1.80;91.40;;;;;;5114997;28;20450;-64
2021/12/21 02:41:32;;;;;;;10.83;6.03;;;1.70;91.30;;;;;;5115419;28;20478;-64
2021/12/21 02:43:59;;;;;;;11.13;6.20;;;1.70;91.20;;;;;;5114845;28;20470;-64
2021/12/21 02:46:26;;;;;;;8.80;6.10;;;1.70;91.20;;;;;;5114868;28;20441;-64
2021/12/21 02:48:53;;;;;;;9.60;5.13;;;1.70;91.30;;;;;;5114861;28;20446;-64
2021/12/21 02:51:20;;;;;;;10.90;5.70;;;1.70;91.40;;;;;;5114779;28;20456;-64
2021/12/21 02:53:48;;;;;;;12.23;6.20;;;1.70;91.30;;;;;;5114580;28;20470;-64
2021/12/21 02:56:16;;;;;;;9.07;7.03;;;1.70;91.80;;;;;;5114662;28;20450;-64
2021/12/21 02:58:43;;;;;;;9.90;5.93;;;1.70;91.30;;;;;;5114379;28;20455;-64
2021/12/21 03:01:11;;;;;;;11.80;6.33;;;1.70;91.20;;;;;;5114482;28;20482;-64
2021/12/21 03:03:39;;;;;;;11.03;5.90;;;1.60;91.30;;;;;;5114329;27;20477;-65
2021/12/21 03:06:11;;;;;;;10.93;6.73;;;1.60;91.40;;;;;;5114485;28;20450;-64
2021/12/21 03:08:41;;;;;;;10.47;6.00;;;1.60;91.40;;;;;;5114434;28;20430;-64
2021/12/21 03:11:16;;;;;;;8.43;6.23;;;1.60;91.50;;;;;;5114471;28;20881;-64
2021/12/21 03:14:03;;;;;;;8.33;5.83;;;1.60;91.40;;;;;;5114537;28;20466;-64
2021/12/21 03:16:32;;;;;;;11.30;6.67;;;1.60;91.30;;;;;;5114349;28;20432;-64
2021/12/21 03:18:59;;;;;;;10.80;5.90;;;1.60;91.20;;;;;;5114277;28;20458;-64
2021/12/21 03:21:27;;;;;;;9.17;5.20;;;1.60;91.20;;;;;;5114211;28;20485;-64
2021/12/21 03:23:53;;;;;;;11.53;6.40;;;1.60;91.30;;;;;;5114156;28;20533;-65
2021/12/21 03:26:22;;;;;;;8.20;5.50;;;1.50;91.20;;;;;;5114229;28;20443;-65
2021/12/21 03:28:49;;;;;;;11.90;6.07;;;1.50;91.30;;;;;;5113875;28;20442;-65
2021/12/21 03:31:15;;;;;;;10.07;5.87;;;1.40;91.10;;;;;;5114564;28;20462;-65
2021/12/21 03:33:43;;;;;;;7.50;6.20;;;1.40;91.20;;;;;;5112816;28;20469;-65
2021/12/21 03:36:09;;;;;;;9.70;5.63;;;1.40;91.20;;;;;;5114106;28;20446;-64
2021/12/21 03:38:38;;;;;;;6.20;5.37;;;1.30;91.20;;;;;;5113748;28;20448;-64
2021/12/21 03:41:09;;;;;;;10.83;6.63;;;1.30;91.30;;;;;;5113717;28;20943;-64
2021/12/21 03:43:37;;;;;;;7.77;5.53;;;1.30;91.40;;;;;;5114054;28;20473;-65
2021/12/21 03:46:09;;;;;;;10.50;5.70;;;1.30;91.40;;;;;;5114075;28;20449;-65
2021/12/21 03:48:36;;;;;;;9.60;5.33;;;1.30;91.50;;;;;;5114162;28;20790;-64
2021/12/21 03:51:04;;;;;;;9.77;5.53;;;1.30;91.60;;;;;;5114053;28;20814;-64
2021/12/21 03:53:30;;;;;;;8.23;5.80;;;1.40;91.70;;;;;;5113864;28;20469;-64
2021/12/21 03:56:17;;;;;;;12.93;5.93;;;1.40;91.70;;;;;;5113913;28;20446;-64
2021/12/21 03:58:45;;;;;;;10.80;6.20;;;1.40;91.60;;;;;;5113432;28;20951;-64
2021/12/21 04:01:12;;;;;;;7.77;6.03;;;1.40;91.60;;;;;;5113788;28;20544;-64
2021/12/21 04:03:39;;;;;;;9.47;6.67;;;1.40;91.70;;;;;;5113753;28;20509;-64
2021/12/21 04:06:06;;;;;;;9.50;6.10;;;1.40;91.70;;;;;;5113780;28;20454;-64
2021/12/21 04:08:33;;;;;;;10.63;5.87;;;1.30;91.80;;;;;;5114571;28;20446;-64
2021/12/21 04:11:00;;;;;;;9.80;6.20;;;1.30;91.80;;;;;;5113758;28;20459;-64
2021/12/21 04:13:29;;;;;;;10.93;6.60;;;1.30;91.80;;;;;;5113661;28;20463;-65
2021/12/21 04:16:00;;;;;;;10.43;5.80;;;1.30;91.70;;;;;;5113684;28;20443;-65
2021/12/21 04:18:27;;;;;;;8.70;5.67;;;1.30;91.70;;;;;;5113699;28;20438;-64
2021/12/21 04:20:53;;;;;;;8.07;6.03;;;1.30;91.60;;;;;;5113636;28;20446;-64
2021/12/21 04:23:20;;;;;;;8.20;5.97;;;1.30;91.60;;;;;;5113261;28;20554;-65
2021/12/21 04:25:47;;;;;;;9.97;7.03;;;1.30;91.60;;;;;;5113652;28;20442;-65
2021/12/21 04:28:14;;;;;;;12.10;6.57;;;1.30;91.60;;;;;;5113314;28;20448;-65
2021/12/21 04:30:40;;;;;;;9.07;6.63;;;1.30;91.60;;;;;;5114175;28;20426;-64
2021/12/21 04:33:08;;;;;;;9.13;5.57;;;1.20;91.50;;;;;;5113481;28;20469;-65
2021/12/21 04:35:35;;;;;;;12.30;6.13;;;1.20;91.50;;;;;;5113515;28;20443;-65
2021/12/21 04:38:18;;;;;;;7.30;5.90;;;1.20;91.50;;;;;;5113198;28;20455;-65
2021/12/21 04:40:48;;;;;;;10.70;7.73;;;1.20;91.60;;;;;;5113541;28;20469;-65
2021/12/21 04:43:14;;;;;;;9.33;7.53;;;1.20;91.70;;;;;;5113405;28;20479;-65
2021/12/21 04:45:41;;;;;;;8.07;6.17;;;1.20;91.70;;;;;;5116233;28;20442;-64
2021/12/21 04:48:09;;;;;;;7.50;6.17;;;1.10;91.60;;;;;;5117089;28;20433;-65
2021/12/21 04:50:36;;;;;;;7.60;5.83;;;1.10;91.50;;;;;;5117083;28;20453;-65
2021/12/21 04:53:03;;;;;;;10.80;6.10;;;1.20;91.50;;;;;;5117447;28;20868;-65
2021/12/21 04:55:29;;;;;;;9.30;6.90;;;1.10;91.30;;;;;;5116873;28;20457;-64
2021/12/21 04:57:57;;;;;;;10.50;5.90;;;1.10;91.20;;;;;;5116835;27;20446;-64
2021/12/21 05:00:24;;;;;;;8.90;5.80;;;1.10;91.30;;;;;;5116279;28;20485;-64
2021/12/21 05:02:51;;;;;;;10.20;7.23;;;1.00;91.30;;;;;;5116445;28;20489;-65
2021/12/21 05:05:19;;;;;;;8.93;6.40;;;1.00;91.30;;;;;;5116587;28;20781;-65
2021/12/21 05:07:50;;;;;;;7.93;6.30;;;1.00;91.30;;;;;;5116895;28;20457;-64
2021/12/21 05:10:18;;;;;;;7.63;5.90;;;1.00;91.40;;;;;;5116819;28;20463;-64
2021/12/21 05:12:45;;;;;;;13.10;6.63;;;1.00;91.40;;;;;;5116374;28;20524;-65
2021/12/21 05:15:12;;;;;;;7.07;5.90;;;1.00;91.40;;;;;;5116727;28;20451;-65
2021/12/21 05:17:40;;;;;;;10.33;5.67;;;1.00;91.50;;;;;;5116298;28;20975;-65
2021/12/21 05:20:07;;;;;;;12.73;6.80;;;1.00;91.50;;;;;;5116324;28;20908;-65
2021/12/21 05:22:35;;;;;;;8.70;6.30;;;1.00;91.50;;;;;;5116371;28;20486;-65
2021/12/21 05:25:02;;;;;;;9.50;6.20;;;1.00;91.40;;;;;;5116454;28;20527;-65
2021/12/21 05:27:29;;;;;;;7.47;6.30;;;1.00;91.40;;;;;;5116438;27;20453;-65
2021/12/21 05:29:55;;;;;;;11.30;6.40;;;1.00;91.40;;;;;;5116047;28;20980;-65
2021/12/21 05:32:22;;;;;;;9.20;5.90;;;1.00;91.50;;;;;;5115999;28;20995;-65
2021/12/21 05:34:49;;;;;;;9.00;5.90;;;0.90;91.30;;;;;;5116321;28;20486;-65
2021/12/21 05:37:16;;;;;;;7.53;6.20;;;0.90;91.30;;;;;;5115946;28;20902;-65
2021/12/21 05:39:54;;;;;;;9.50;6.70;;;0.90;91.30;;;;;;5116174;27;20443;-65
2021/12/21 05:42:21;;;;;;;10.40;6.90;;;0.90;91.40;;;;;;5116032;28;20579;-65
2021/12/21 05:44:49;;;;;;;8.50;6.23;;;0.90;91.40;;;;;;5116098;28;20451;-65
2021/12/21 05:47:16;;;;;;;9.67;6.57;;;0.80;91.30;;;;;;5116042;28;20541;-65
2021/12/21 05:49:43;;;;;;;9.17;6.60;;;0.80;91.30;;;;;;5115781;28;20638;-65
2021/12/21 05:52:10;;;;;;;8.00;6.37;;;0.80;91.20;;;;;;5115907;28;20466;-65
2021/12/21 05:54:37;;;;;;;9.90;6.27;;;0.80;91.30;;;;;;5115544;28;20514;-65
2021/12/21 05:57:06;;;;;;;12.10;7.20;;;0.80;91.40;;;;;;5114972;28;20457;-64
2021/12/21 05:59:33;;;;;;;12.87;6.87;;;0.70;91.50;;;;;;5115392;28;20847;-64
2021/12/21 06:02:00;;;;;;;9.50;6.90;;;0.80;91.60;;;;;;5115520;28;20453;-65
2021/12/21 06:04:26;;;;;;;12.60;6.67;;;0.80;91.70;;;;;;5115715;27;20447;-65
2021/12/21 06:06:53;;;;;;;10.27;7.23;;;0.70;91.50;;;;;;5115716;28;20548;-65
2021/12/21 06:09:20;;;;;;;12.17;7.40;;;0.70;91.50;;;;;;5115534;28;20461;-65
2021/12/21 06:11:54;;;;;;;10.50;6.57;;;0.70;91.50;;;;;;5115204;28;20446;-66
2021/12/21 06:14:48;;;;;;;8.93;6.43;;;0.70;91.60;;;;;;5115588;27;20437;-65
2021/12/21 06:23:18;;;;;;;7.90;6.57;;;0.60;91.40;;;;;;5072525;28;20944;-65
2021/12/21 06:25:53;;;;;;;10.60;7.00;;;0.60;91.60;;;;;;5072347;28;20573;-65
2021/12/21 06:28:21;;;;;;;8.40;6.13;;;0.60;91.60;;;;;;5099287;28;20793;-65
2021/12/21 06:30:50;;;;;;;8.83;7.23;;;0.60;91.70;;;;;;5115191;28;20449;-65
2021/12/21 06:33:18;;;;;;;10.57;6.40;;;0.60;91.70;;;;;;5115118;28;20549;-65
2021/12/21 06:35:45;;;;;;;10.40;6.30;;;0.60;91.70;;;;;;5115184;28;20423;-65
2021/12/21 06:38:13;;;;;;;9.27;6.07;;;0.60;91.70;;;;;;5114989;28;20448;-65
2021/12/21 06:40:40;;;;;;;12.40;6.10;;;0.60;91.70;;;;;;5114603;28;20974;-65
2021/12/21 06:43:12;;;;;;;9.80;7.20;;;0.60;91.70;;;;;;5114983;28;20508;-66
2021/12/21 06:45:47;;;;;;;13.37;7.00;;;0.60;91.70;;;;;;5115002;28;20480;-66
2021/12/21 06:53:49;;;;;;;8.90;6.47;;;0.60;91.90;;;;;;5114229;28;20452;-66
2021/12/21 06:56:17;;;;;;;6.60;6.00;;;0.60;92.00;;;;;;5114708;28;20442;-66
2021/12/21 06:58:44;;;;;;;15.30;7.03;;;0.60;92.10;;;;;;5114457;27;20457;-66
2021/12/21 07:01:11;;;;;;;15.63;6.80;;;0.60;92.20;;;;;;5114523;28;20445;-66
2021/12/21 07:03:41;;;;;;;9.00;6.47;;;0.60;92.10;;;;;;5114363;28;20536;-66
2021/12/21 07:06:09;;;;;;;6.10;5.50;;;0.60;92.00;;;;;;5114376;28;20454;-66
2021/12/21 07:08:45;;;;;;;15.47;7.23;;;0.60;92.10;;;;;;5114278;28;20441;-66
2021/12/21 07:11:18;;;;;;;10.57;7.03;;;0.60;92.10;;;;;;5114473;28;20797;-66
2021/12/21 07:19:12;;;;;;;9.60;7.33;;;0.50;92.40;;;;;;5114488;28;20472;-66
2021/12/21 07:21:39;;;;;;;15.23;7.60;;;0.50;92.10;;;;;;5114314;28;20440;-66
2021/12/21 07:24:07;;;;;;;7.47;6.50;;;0.50;92.10;;;;;;5114014;28;20477;-66
2021/12/21 07:26:34;;;;;;;11.73;7.60;;;0.50;92.20;;;;;;5114320;28;20446;-66
2021/12/21 07:29:01;;;;;;;14.90;7.10;;;0.50;92.20;;;;;;5114282;27;20439;-66
2021/12/21 07:31:28;;;;;;;13.47;7.50;;;0.50;92.20;;;;;;5113897;28;20816;-66
2021/12/21 07:33:55;;;;;;;11.87;7.37;;;0.50;92.00;;;;;;5114050;28;20470;-66
2021/12/21 07:36:23;;;;;;;10.10;7.47;;;0.50;92.10;;;;;;5114135;28;20441;-66
2021/12/21 07:38:50;;;;;;;12.57;7.57;;;0.50;92.10;;;;;;5114135;28;20435;-66
2021/12/21 07:41:16;;;;;;;14.23;9.27;;;0.50;92.10;;;;;;5114105;28;20429;-66
2021/12/21 07:43:43;;;;;;;9.80;6.20;;;0.50;92.20;;;;;;5114003;28;20485;-66
2021/12/21 07:46:10;;;;;;;9.63;7.33;;;0.50;92.20;;;;;;5113690;28;20955;-66
2021/12/21 07:48:37;;;;;;;8.23;6.60;;;0.50;92.20;;;;;;5113646;28;20816;-66
2021/12/21 07:51:05;;;;;;;13.17;7.30;;;0.60;92.20;;;;;;5113689;28;20485;-66
2021/12/21 07:53:34;;;;;;;11.20;7.60;;;0.50;92.10;;;;;;5114016;28;20473;-66
2021/12/21 07:56:02;;;;;;;10.30;7.40;;;0.60;91.90;;;;;;5113909;28;20442;-66
2021/12/21 07:58:30;;;;;;;11.37;7.53;;;0.50;91.90;;;;;;5113764;28;20470;-66
2021/12/21 08:00:57;;;;;;;10.83;7.03;;;0.50;92.00;;;;;;5113891;28;20837;-66
2021/12/21 08:03:24;;;;;;;9.87;7.40;;;0.50;92.20;;;;;;5113404;28;20974;-66
2021/12/21 08:05:54;;;;;;;10.57;8.30;;;0.50;92.20;;;;;;5113819;28;20448;-66
2021/12/21 08:08:23;;;;;;;12.40;7.30;;;0.50;92.20;;;;;;5113863;28;20515;-66
2021/12/21 08:10:55;;;;;;;12.80;8.33;;;0.60;92.30;;;;;;5113785;28;20541;-66
2021/12/21 08:13:22;;;;;;;14.13;8.90;;;0.60;92.30;;;;;;5113374;28;20875;-66
2021/12/21 08:15:49;;;;;;;18.20;8.77;;;0.60;92.30;;;;;;5113846;28;20452;-66
2021/12/21 08:18:17;;;;;;;11.60;7.67;;;0.60;92.30;;;;;;5113708;28;20469;-66
2021/12/21 08:20:43;;;;;;;14.33;8.70;;;0.60;92.50;;;;;;5116871;28;20445;-66
2021/12/21 08:23:10;;;;;;;12.20;9.20;;;0.60;92.60;;;;;;5117939;28;20481;-67
2021/12/21 08:25:38;;;;;;;11.17;7.80;;;0.60;92.60;;;;;;5117625;28;20809;-67
2021/12/21 08:28:07;;;;;;;11.53;7.00;;;0.60;92.70;;;;;;5117629;28;20450;-68
2021/12/21 08:30:34;;;;;;;11.70;7.87;;;0.70;92.90;;;;;;5117212;28;20452;-68
2021/12/21 08:33:01;;;;;;;14.03;7.57;;;0.70;92.80;;;;;;5117479;27;20462;-68
2021/12/21 08:35:28;;;;;;;11.00;9.13;;;0.70;92.80;;;;;;5117528;28;20809;-68
2021/12/21 08:38:02;;;;;;;12.53;8.10;;;0.80;92.80;;;;;;5117480;28;20443;-68
2021/12/21 08:40:36;;;;;;;13.37;7.60;;;0.80;92.80;;;;;;5117973;28;20435;-68
2021/12/21 08:43:03;;;;;;;13.17;8.90;;;0.80;92.90;;;;;;5117083;28;20538;-67
2021/12/21 08:45:32;;;;;;;10.47;8.03;;;0.80;93.00;;;;;;5117177;28;20499;-67
2021/12/21 08:47:59;;;;;;;13.30;9.40;;;0.80;93.10;;;;;;5117170;28;20447;-67
2021/12/21 08:50:26;;;;;;;9.87;8.87;;;0.80;93.20;;;;;;5117207;28;20483;-68
2021/12/21 08:52:53;;;;;;;12.70;9.27;;;0.80;93.30;;;;;;5116984;28;20467;-68
2021/12/21 08:55:20;;;;;;;12.40;9.20;;;0.80;93.20;;;;;;5117025;28;20450;-68
2021/12/21 08:57:47;;;;;;;14.63;10.43;;;0.80;93.30;;;;;;5117033;28;20541;-68
2021/12/21 09:00:15;;;;;;;11.50;8.43;;;0.80;93.50;;;;;;5116446;28;20472;-68
2021/12/21 09:02:43;;;;;;;11.70;9.87;;;0.80;93.50;;;;;;5116484;28;20466;-68
2021/12/21 09:05:16;;;;;;;16.20;8.80;;;0.80;93.70;;;;;;5116533;28;20924;-67
2021/12/21 09:07:43;;;;;;;10.73;8.20;;;0.80;93.70;;;;;;5116792;28;20445;-67
2021/12/21 09:10:12;;;;;;;13.13;10.50;;;0.80;93.80;;;;;;5116845;28;20450;-67
2021/12/21 09:12:39;;;;;;;9.53;7.80;;;0.80;93.90;;;;;;5116807;28;20480;-67
2021/12/21 09:15:08;;;;;;;16.83;8.47;;;0.90;94.10;;;;;;5116741;28;20445;-67
2021/12/21 09:17:35;;;;;;;13.20;9.00;;;0.90;94.20;;;;;;5116205;28;20453;-67
2021/12/21 09:20:05;;;;;;;14.70;8.70;;;0.90;94.40;;;;;;5116594;28;20441;-67
2021/12/21 09:22:32;;;;;;;9.70;8.17;;;0.90;94.70;;;;;;5116222;28;21018;-67
2021/12/21 09:24:59;;;;;;;8.50;6.77;;;1.00;94.90;;;;;;5116098;28;20988;-67
2021/12/21 09:27:26;;;;;;;12.47;7.43;;;1.00;95.00;;;;;;5116102;28;20903;-67
2021/12/21 09:29:53;;;;;;;12.20;7.30;;;1.10;95.20;;;;;;5116381;28;20456;-67
2021/12/21 09:32:20;;;;;;;10.80;7.33;;;1.10;95.30;;;;;;5116530;28;20469;-67
2021/12/21 09:34:47;;;;;;;10.97;6.30;;;1.10;95.40;;;;;;5116310;28;20446;-67
2021/12/21 09:37:19;;;;;;;9.93;7.00;;;1.20;95.60;;;;;;5116180;28;20453;-67
2021/12/21 09:39:47;;;;;;;10.70;7.43;;;1.20;95.60;;;;;;5116225;28;20567;-67
2021/12/21 09:42:17;;;;;;;13.13;7.93;;;1.30;95.80;;;;;;5115770;28;20838;-67
2021/12/21 09:44:44;;;;;;;9.37;7.40;;;1.30;95.80;;;;;;5116078;28;20476;-67
2021/12/21 09:47:12;;;;;;;12.23;7.40;;;1.40;95.90;;;;;;5116126;27;20492;-67
2021/12/21 09:49:39;;;;;;;9.40;8.23;;;1.40;95.90;;;;;;5116134;28;20450;-67
2021/12/21 09:52:08;;;;;;;9.90;7.60;;;1.50;96.00;;;;;;5115978;28;20451;-67
2021/12/21 09:54:37;;;;;;;12.97;9.07;;;1.60;96.10;;;;;;5115771;28;20436;-67
2021/12/21 09:57:06;;;;;;;11.20;7.97;;;1.70;96.10;;;;;;5115870;28;20476;-67
2021/12/21 09:59:33;;;;;;;11.70;8.17;;;1.70;96.10;;;;;;5115498;28;20527;-67
2021/12/21 10:02:02;;;;;;;16.83;8.30;;;1.80;96.10;;;;;;5115300;28;20948;-67
2021/12/21 10:04:29;;;;;;;15.50;8.40;;;1.90;96.10;;;;;;5115526;28;20478;-68
2021/12/21 10:06:57;;;;;;;18.93;9.17;;;1.90;96.10;;;;;;5115349;28;20936;-68
2021/12/21 10:09:33;;;;;;;16.20;9.47;;;2.00;96.00;;;;;;5115579;28;20446;-68
2021/12/21 10:12:01;;;;;;;14.77;9.00;;;2.00;96.00;;;;;;5115243;28;20892;-67
2021/12/21 10:14:28;;;;;;;12.20;8.40;;;2.20;96.00;;;;;;5115565;28;20443;-67
2021/12/21 10:17:01;;;;;;;16.67;8.47;;;2.20;96.00;;;;;;5115125;28;20877;-67
2021/12/21 10:19:28;;;;;;;15.87;7.70;;;2.30;96.10;;;;;;5115469;28;20430;-67
2021/12/21 10:21:54;;;;;;;12.13;7.47;;;2.40;96.10;;;;;;5115055;28;20431;-67
2021/12/21 10:24:25;;;;;;;11.50;8.00;;;2.40;96.00;;;;;;5115052;28;20983;-67
2021/12/21 10:26:53;;;;;;;10.37;6.60;;;2.50;95.90;;;;;;5116222;28;20443;-68
2021/12/21 10:29:21;;;;;;;13.10;8.00;;;2.50;95.80;;;;;;5116707;28;20450;-67
2021/12/21 10:31:50;;;;;;;12.27;6.87;;;2.60;95.70;;;;;;5115132;28;20447;-67
2021/12/21 10:34:18;;;;;;;12.03;6.33;;;2.60;95.50;;;;;;5114921;28;20430;-68
2021/12/21 10:36:47;;;;;;;8.67;6.30;;;2.70;95.40;;;;;;5115123;27;20442;-68
2021/12/21 10:39:20;;;;;;;8.13;6.00;;;2.80;95.40;;;;;;5114709;28;20442;-68
2021/12/21 10:41:47;;;;;;;11.07;7.40;;;2.90;95.40;;;;;;5114639;28;20439;-68
2021/12/21 10:44:16;;;;;;;10.00;6.10;;;3.00;95.40;;;;;;5114455;28;20995;-67
2021/12/21 10:46:46;;;;;;;14.17;6.57;;;3.00;95.60;;;;;;5114937;28;20808;-67
2021/12/21 10:49:15;;;;;;;6.63;5.63;;;3.20;95.80;;;;;;5115637;28;20438;-68
2021/12/21 10:51:53;;;;;;;7.30;6.10;;;3.30;95.90;;;;;;5114827;28;20890;-68
2021/12/21 10:54:27;;;;;;;7.40;4.80;;;3.40;96.00;;;;;;5114841;27;20427;-67
2021/12/21 10:56:57;;;;;;;8.73;5.77;;;3.60;96.40;;;;;;5114777;28;20491;-68
2021/12/21 10:59:30;;;;;;;7.80;5.57;;;3.70;96.20;;;;;;5114411;28;20945;-68
2021/12/21 11:02:07;;;;;;;7.80;4.10;;;3.90;96.30;;;;;;5114643;28;20463;-68
2021/12/21 11:04:37;;;;;;;6.63;4.50;;;4.00;96.30;;;;;;5114613;28;20504;-68
2021/12/21 11:07:20;;;;;;;6.03;4.63;;;4.20;95.80;;;;;;5114206;28;20959;-68
2021/12/21 11:09:57;;;;;;;5.43;4.00;;;4.40;95.70;;;;;;5114491;28;20437;-68
2021/12/21 11:12:26;;;;;;;8.80;4.63;;;4.60;94.90;;;;;;5114382;28;20465;-67
2021/12/21 11:14:57;;;;;;;6.53;3.90;;;4.80;95.00;;;;;;5114404;27;20869;-67
2021/12/21 11:17:25;;;;;;;6.97;4.03;;;5.10;95.00;;;;;;5113955;28;20807;-67
2021/12/21 11:19:52;;;;;;;6.30;4.03;;;5.30;92.60;;;;;;5114293;28;20442;-67
2021/12/21 11:22:19;;;;;;;4.27;3.50;;;5.60;91.20;;;;;;5113860;28;20501;-67
2021/12/21 11:24:48;;;;;;;6.00;4.73;;;5.80;90.40;;;;;;5114190;28;20487;-67
2021/12/21 11:27:16;;;;;;;4.53;4.00;;;6.10;89.00;;;;;;5114224;28;20465;-67
2021/12/21 11:29:44;;;;;;;7.73;3.93;;;6.30;86.80;;;;;;5114989;28;20454;-67
2021/12/21 11:32:12;;;;;;;7.20;4.00;;;6.60;86.70;;;;;;5114131;28;20463;-67
2021/12/21 11:35:07;;;;;;;7.93;3.70;;;7.00;86.60;;;;;;5114138;28;20450;-66
2021/12/21 11:37:31;;;;;;;13.03;2.90;;;7.40;86.80;;;;;;5113650;28;20521;-67
2021/12/21 11:39:58;;;;;;;6.37;2.93;;;7.70;81.80;;;;;;5114072;28;20438;-67
2021/12/21 11:42:43;;;;;;;7.10;3.23;;;8.10;80.40;;;;;;5113943;28;20462;-67
2021/12/21 11:45:16;;;;;;;10.43;4.43;;;8.50;79.00;;;;;;5113654;28;20462;-67
2021/12/21 11:47:52;;;;;;;7.40;3.23;;;8.90;77.10;;;;;;5114028;28;20481;-67
2021/12/21 11:53:37;;;;;;;6.00;3.97;;;9.60;73.30;;;;;;5110141;28;20466;-66
2021/12/21 11:56:05;;;;;;;4.30;3.30;;;10.00;69.30;;;;;;5117851;28;20499;-66
2021/12/21 11:58:38;;;;;;;4.60;3.03;;;10.40;67.30;;;;;;5117681;28;20967;-67
2021/12/21 12:01:07;;;;;;;4.00;3.10;;;10.70;64.90;;;;;;5117830;28;20927;-67
2021/12/21 12:03:37;;;;;;;3.20;2.80;;;10.90;62.20;;;;;;5117970;28;20455;-67
2021/12/21 12:06:12;;;;;;;5.87;2.77;;;11.20;61.00;;;;;;5117797;28;20944;-67
2021/12/21 12:08:44;;;;;;;3.83;2.57;;;11.40;59.40;;;;;;5118017;28;20487;-67
2021/12/21 12:11:23;;;;;;;3.87;2.90;;;11.70;58.10;;;;;;5117666;28;20932;-67
2021/12/21 12:13:50;;;;;;;4.43;2.77;;;11.80;57.20;;;;;;5117871;28;20466;-67
2021/12/21 12:16:18;;;;;;;7.23;4.23;;;11.90;56.00;;;;;;5117569;28;20453;-67
2021/12/21 12:18:46;;;;;;;5.23;2.90;;;12.10;55.60;;;;;;5117493;27;20435;-67
2021/12/21 12:21:17;;;;;;;7.23;3.67;;;12.20;55.50;;;;;;5117773;28;20446;-67
2021/12/21 12:23:50;;;;;;;5.03;3.83;;;12.30;55.00;;;;;;5117594;28;20466;-67
2021/12/21 12:26:26;;;;;;;6.60;4.17;;;12.40;54.60;;;;;;5117395;28;20435;-67
2021/12/21 12:28:54;;;;;;;7.43;3.90;;;12.50;54.50;;;;;;5117576;28;20427;-67
2021/12/21 12:31:29;;;;;;;6.80;3.67;;;12.50;54.10;;;;;;5117620;27;20439;-67
2021/12/21 12:33:56;;;;;;;5.03;3.53;;;12.60;53.70;;;;;;5117461;28;20470;-67
2021/12/21 12:36:40;;;;;;;4.60;3.83;;;12.70;53.20;;;;;;5117528;27;20447;-67
2021/12/21 12:39:08;;;;;;;5.70;3.87;;;12.70;52.90;;;;;;5117485;28;20476;-67
2021/12/21 12:41:46;;;;;;;7.60;4.07;;;12.70;52.60;;;;;;5117354;28;20446;-67
2021/12/21 12:44:21;;;;;;;6.37;3.90;;;12.80;52.30;;;;;;5117207;28;20477;-67
2021/12/21 12:46:53;;;;;;;5.90;4.10;;;12.80;51.80;;;;;;5117401;28;20441;-67
2021/12/21 12:49:23;;;;;;;6.40;4.13;;;12.80;51.50;;;;;;5117190;28;20427;-67
2021/12/21 12:52:01;;;;;;;5.30;4.20;;;12.80;51.50;;;;;;5116836;28;20473;-67
2021/12/21 12:54:28;;;;;;;6.20;3.93;;;12.80;51.60;;;;;;5117228;28;20422;-67
2021/12/21 12:56:55;;;;;;;4.40;3.43;;;12.70;51.50;;;;;;5116910;28;20901;-67
2021/12/21 12:59:22;;;;;;;4.20;3.80;;;12.70;51.50;;;;;;5116933;28;20462;-67
2021/12/21 13:01:49;;;;;;;7.03;4.60;;;12.70;51.40;;;;;;5117095;27;20454;-68
2021/12/21 13:04:18;;;;;;;4.17;3.73;;;12.60;51.40;;;;;;5116631;28;20557;-68
2021/12/21 13:06:48;;;;;;;7.30;4.40;;;12.60;51.60;;;;;;5116085;28;20513;-67
2021/12/21 13:09:18;;;;;;;6.33;3.83;;;12.50;51.50;;;;;;5116876;28;20802;-67
2021/12/21 13:11:45;;;;;;;5.87;4.30;;;12.50;51.60;;;;;;5117872;28;20439;-67
2021/12/21 13:14:13;;;;;;;4.70;3.43;;;12.40;51.50;;;;;;5116669;28;20467;-67
2021/12/21 13:16:41;;;;;;;3.77;3.40;;;12.20;51.40;;;;;;5116356;28;20933;-67
2021/12/21 13:19:10;;;;;;;6.27;4.17;;;12.00;51.30;;;;;;5116494;28;20446;-67
2021/12/21 13:21:44;;;;;;;7.73;5.43;;;11.60;51.80;;;;;;5116595;28;20447;-67
2021/12/21 13:24:13;;;;;;;6.27;4.00;;;11.10;52.60;;;;;;5116094;28;20459;-67
2021/12/21 13:26:44;;;;;;;6.00;3.90;;;10.50;53.40;;;;;;5116489;27;20449;-67
2021/12/21 13:29:14;;;;;;;6.17;4.10;;;10.10;54.50;;;;;;5116496;28;20431;-67